createdAt,value
2023-03-27T00:00:10.802Z,0.05
2023-03-27T00:02:46.991Z,0.00
2023-03-27T00:05:20.763Z,0.00
2023-03-27T00:07:55.741Z,0.17
2023-03-27T00:10:30.060Z,0.00
2023-03-27T00:13:03.726Z,0.00
2023-03-27T00:15:37.622Z,0.00
2023-03-27T00:18:10.831Z,0.00
2023-03-27T00:20:44.750Z,0.03
2023-03-27T00:23:19.988Z,0.00
2023-03-27T00:25:56.031Z,0.05
2023-03-27T00:28:30.565Z,0.10
2023-03-27T00:31:03.662Z,0.00
2023-03-27T00:33:36.675Z,0.00
2023-03-27T00:36:10.797Z,0.10
2023-03-27T00:38:45.846Z,0.00
2023-03-27T00:41:20.699Z,0.08
2023-03-27T00:43:56.455Z,2.70
2023-03-27T00:46:36.343Z,0.00
2023-03-27T00:49:12.935Z,0.00
2023-03-27T00:51:48.636Z,0.00
2023-03-27T00:54:26.675Z,0.00
2023-03-27T00:57:09.411Z,0.05
2023-03-27T00:59:45.356Z,0.00
2023-03-27T01:02:19.607Z,0.00
2023-03-27T01:04:54.505Z,0.10
2023-03-27T01:07:28.635Z,0.00
2023-03-27T01:10:02.089Z,0.10
2023-03-27T01:12:45.608Z,0.00
2023-03-27T01:15:33.562Z,0.10
2023-03-27T01:18:20.893Z,0.00
2023-03-27T01:21:48.010Z,0.00
2023-03-27T01:24:57.332Z,0.00
2023-03-27T01:27:53.899Z,0.10
2023-03-27T01:30:33.000Z,0.00
2023-03-27T01:33:32.740Z,0.10
2023-03-27T01:36:34.772Z,0.00
2023-03-27T01:39:30.430Z,0.10
2023-03-27T01:42:14.544Z,0.10
2023-03-27T01:44:53.170Z,0.00
2023-03-27T01:47:35.106Z,0.00
2023-03-27T01:50:18.012Z,0.00
2023-03-27T01:52:55.469Z,0.00
2023-03-27T01:55:34.590Z,0.00
2023-03-27T01:58:14.206Z,0.00
2023-03-27T02:00:53.341Z,0.10
2023-03-27T02:03:32.000Z,0.00
2023-03-27T02:06:09.583Z,0.00
2023-03-27T02:08:48.664Z,0.05
2023-03-27T02:11:32.167Z,0.00
2023-03-27T02:14:10.462Z,0.10
2023-03-27T02:16:47.130Z,0.10
2023-03-27T02:19:25.247Z,0.10
2023-03-27T02:21:59.047Z,0.10
2023-03-27T02:24:32.150Z,0.05
2023-03-27T02:27:15.683Z,0.10
2023-03-27T02:29:59.785Z,0.00
2023-03-27T02:32:41.644Z,0.10
2023-03-27T02:35:31.891Z,0.10
2023-03-27T02:38:12.673Z,0.10
2023-03-27T02:40:58.757Z,0.10
2023-03-27T02:44:00.197Z,0.00
2023-03-27T02:46:54.729Z,0.10
2023-03-27T02:49:33.681Z,0.10
2023-03-27T02:52:11.246Z,0.10
2023-03-27T02:54:49.915Z,0.10
2023-03-27T02:57:28.004Z,0.08
2023-03-27T03:00:42.105Z,0.10
2023-03-27T03:03:33.568Z,0.10
2023-03-27T03:06:14.783Z,0.10
2023-03-27T03:08:49.914Z,0.10
2023-03-27T03:11:22.937Z,0.10
2023-03-27T03:13:56.330Z,0.00
2023-03-27T03:16:31.137Z,0.10
2023-03-27T03:19:04.050Z,0.10
2023-03-27T03:21:37.836Z,0.10
2023-03-27T03:24:13.585Z,0.10
2023-03-27T03:26:49.962Z,0.10
2023-03-27T03:29:35.499Z,0.00
2023-03-27T03:32:24.644Z,0.10
2023-03-27T03:34:58.799Z,0.10
2023-03-27T03:37:38.747Z,0.03
2023-03-27T03:42:53.320Z,0.00
2023-03-27T03:45:30.669Z,0.10
2023-03-27T03:48:05.323Z,0.10
2023-03-27T03:50:38.234Z,0.10
2023-03-27T03:53:11.593Z,0.08
2023-03-27T03:55:45.610Z,0.10
2023-03-27T03:58:18.820Z,11.38
2023-03-27T04:00:52.561Z,0.10
2023-03-27T04:03:39.283Z,0.10
2023-03-27T04:06:13.462Z,0.10
2023-03-27T04:08:46.961Z,0.10
2023-03-27T04:11:42.697Z,0.63
2023-03-27T04:14:34.627Z,0.10
2023-03-27T04:17:13.089Z,0.00
2023-03-27T04:19:47.891Z,0.00
2023-03-27T04:22:22.740Z,0.10
2023-03-27T04:24:55.941Z,0.00
2023-03-27T04:27:30.411Z,0.10
2023-03-27T04:30:14.537Z,0.10
2023-03-27T04:33:25.848Z,0.00
2023-03-27T04:36:07.952Z,0.10
2023-03-27T04:39:03.655Z,0.10
2023-03-27T04:41:38.973Z,0.10
2023-03-27T04:44:13.280Z,0.10
2023-03-27T04:46:49.137Z,0.10
2023-03-27T04:49:22.901Z,0.10
2023-03-27T04:52:03.590Z,0.10
2023-03-27T04:54:36.860Z,0.00
2023-03-27T04:57:10.069Z,0.00
2023-03-27T04:59:43.413Z,0.10
2023-03-27T05:02:36.712Z,0.10
2023-03-27T05:05:19.419Z,0.10
2023-03-27T05:07:53.885Z,0.10
2023-03-27T05:10:30.013Z,0.10
2023-03-27T05:13:02.994Z,0.10
2023-03-27T05:15:35.854Z,0.10
2023-03-27T05:18:10.858Z,0.10
2023-03-27T05:20:48.947Z,0.10
2023-03-27T05:23:23.851Z,0.10
2023-03-27T05:26:00.363Z,0.10
2023-03-27T05:28:45.834Z,0.10
2023-03-27T05:31:19.298Z,0.10
2023-03-27T05:34:22.093Z,0.10
2023-03-27T05:36:58.263Z,0.10
2023-03-27T05:39:36.852Z,0.10
2023-03-27T05:42:15.082Z,0.10
2023-03-27T05:44:48.812Z,0.10
2023-03-27T05:47:21.831Z,0.00
2023-03-27T05:49:58.893Z,0.75
2023-03-27T05:52:33.753Z,0.10
2023-03-27T05:55:10.475Z,0.10
2023-03-27T05:57:44.864Z,0.10
2023-03-27T06:00:23.877Z,0.10
2023-03-27T06:02:58.614Z,0.10
2023-03-27T06:05:44.732Z,0.10
2023-03-27T06:08:18.105Z,0.10
2023-03-27T06:10:54.410Z,0.10
2023-03-27T06:13:31.448Z,0.10
2023-03-27T06:16:12.151Z,0.10
2023-03-27T06:19:10.086Z,0.20
2023-03-27T06:21:50.649Z,0.10
2023-03-27T06:24:23.782Z,0.10
2023-03-27T06:26:58.474Z,0.10
2023-03-27T06:29:37.409Z,0.10
2023-03-27T06:32:11.893Z,0.10
2023-03-27T06:34:50.273Z,0.10
2023-03-27T06:37:42.531Z,0.10
2023-03-27T06:40:22.858Z,0.10
2023-03-27T06:43:01.170Z,0.10
2023-03-27T06:45:45.742Z,0.10
2023-03-27T06:48:57.117Z,0.10
2023-03-27T06:51:30.030Z,0.10
2023-03-27T06:54:03.261Z,0.10
2023-03-27T06:56:37.428Z,0.10
2023-03-27T06:59:23.337Z,0.10
2023-03-27T07:02:02.330Z,0.10
2023-03-27T07:05:04.828Z,0.10
2023-03-27T07:07:49.400Z,0.10
2023-03-27T07:10:24.803Z,0.10
2023-03-27T07:13:00.150Z,0.10
2023-03-27T07:15:35.677Z,0.10
2023-03-27T07:18:09.888Z,0.10
2023-03-27T07:20:42.784Z,0.05
2023-03-27T07:23:19.725Z,0.08
2023-03-27T07:26:00.299Z,0.10
2023-03-27T07:29:00.698Z,0.10
2023-03-27T07:31:54.933Z,0.10
2023-03-27T07:34:35.347Z,0.00
2023-03-27T07:37:29.544Z,0.20
2023-03-27T07:40:36.870Z,0.10
2023-03-27T07:43:32.921Z,0.10
2023-03-27T07:46:07.348Z,0.10
2023-03-27T07:48:42.068Z,0.10
2023-03-27T07:51:22.854Z,0.10
2023-03-27T07:53:58.765Z,0.08
2023-03-27T07:56:37.989Z,0.10
2023-03-27T07:59:29.747Z,0.00
2023-03-27T08:02:07.134Z,0.00
2023-03-27T08:04:45.581Z,0.10
2023-03-27T08:07:21.539Z,0.10
2023-03-27T08:09:57.542Z,0.10
2023-03-27T08:12:32.459Z,0.10
2023-03-27T08:15:09.441Z,0.10
2023-03-27T08:17:42.635Z,0.10
2023-03-27T08:20:18.831Z,0.10
2023-03-27T08:22:54.307Z,0.10
2023-03-27T08:25:36.378Z,6.35
2023-03-27T08:28:13.536Z,8.27
2023-03-27T08:30:47.624Z,6.32
2023-03-27T08:33:20.491Z,3.90
2023-03-27T08:35:57.431Z,8.15
2023-03-27T08:38:33.326Z,4.45
2023-03-27T08:41:39.040Z,9.40
2023-03-27T08:44:47.792Z,5.15
2023-03-27T08:47:29.266Z,5.10
2023-03-27T08:50:22.345Z,3.83
2023-03-27T08:53:01.030Z,4.43
2023-03-27T08:55:42.290Z,5.68
2023-03-27T08:58:24.362Z,3.80
2023-03-27T09:01:11.723Z,6.85
2023-03-27T09:03:52.130Z,4.40
2023-03-27T09:06:28.082Z,9.82
2023-03-27T09:09:12.070Z,4.87
2023-03-27T09:14:31.950Z,5.85
2023-03-27T09:17:13.345Z,5.07
2023-03-27T09:19:51.750Z,8.68
2023-03-27T09:22:31.257Z,8.38
2023-03-27T09:25:26.150Z,3.50
2023-03-27T09:28:25.630Z,4.47
2023-03-27T09:31:23.590Z,2.70
2023-03-27T09:33:59.494Z,7.43
2023-03-27T09:36:32.841Z,3.03
2023-03-27T09:39:08.305Z,6.28
2023-03-27T09:41:47.712Z,8.93
2023-03-27T09:44:25.532Z,3.65
2023-03-27T09:47:05.921Z,5.85
2023-03-27T09:49:41.308Z,7.25
2023-03-27T09:52:35.635Z,10.85
2023-03-27T09:55:31.158Z,12.57
2023-03-27T09:58:17.062Z,6.82
2023-03-27T10:00:50.151Z,9.88
2023-03-27T10:03:23.479Z,2.53
2023-03-27T10:06:08.415Z,6.55
2023-03-27T10:08:56.824Z,7.32
2023-03-27T10:11:35.601Z,6.05
2023-03-27T10:14:19.869Z,4.78
2023-03-27T10:16:53.060Z,6.15
2023-03-27T10:19:30.158Z,3.45
2023-03-27T10:22:18.004Z,6.80
2023-03-27T10:24:53.951Z,4.55
2023-03-27T10:27:29.979Z,3.72
2023-03-27T10:30:33.057Z,7.68
2023-03-27T10:33:31.644Z,4.88
2023-03-27T10:36:33.441Z,4.95
2023-03-27T10:39:12.897Z,5.55
2023-03-27T10:42:17.264Z,4.57
2023-03-27T10:44:57.699Z,5.32
2023-03-27T10:47:35.967Z,7.00
2023-03-27T10:50:19.177Z,7.03
2023-03-27T10:53:02.752Z,8.10
2023-03-27T10:55:53.885Z,7.20
2023-03-27T10:58:34.227Z,10.15
2023-03-27T11:03:57.101Z,4.28
2023-03-27T11:06:35.252Z,3.03
2023-03-27T11:09:17.294Z,3.92
2023-03-27T11:12:05.924Z,7.75
2023-03-27T11:14:48.426Z,4.60
2023-03-27T11:17:30.673Z,3.15
2023-03-27T11:20:26.179Z,4.75
2023-03-27T11:23:28.649Z,3.90
2023-03-27T11:26:23.574Z,3.83
2023-03-27T11:29:05.925Z,4.03
2023-03-27T11:31:51.195Z,6.82
2023-03-27T11:35:04.590Z,3.95
2023-03-27T11:37:54.659Z,3.22
2023-03-27T11:40:37.508Z,5.70
2023-03-27T11:43:13.170Z,6.40
2023-03-27T11:46:00.373Z,2.78
2023-03-27T11:48:49.422Z,4.00
2023-03-27T11:51:31.773Z,7.22
2023-03-27T11:54:28.247Z,7.75
2023-03-27T11:57:17.359Z,3.53
2023-03-27T12:00:25.636Z,5.85
2023-03-27T12:03:14.749Z,3.50
2023-03-27T12:06:03.230Z,7.00
2023-03-27T12:08:54.829Z,3.60
2023-03-27T12:11:30.868Z,2.28
2023-03-27T12:14:34.369Z,3.22
2023-03-27T12:17:35.697Z,3.25
2023-03-27T12:20:48.700Z,2.58
2023-03-27T12:23:40.065Z,1.90
2023-03-27T12:26:48.642Z,3.55
2023-03-27T12:29:50.828Z,2.33
2023-03-27T12:32:44.795Z,3.83
2023-03-27T12:35:21.581Z,3.10
2023-03-27T12:38:00.152Z,4.55
2023-03-27T12:40:39.943Z,2.40
2023-03-27T12:43:31.616Z,4.35
2023-03-27T12:46:33.153Z,7.13
2023-03-27T12:49:47.013Z,4.75
2023-03-27T12:52:28.576Z,0.03
2023-03-27T12:55:24.225Z,0.00
2023-03-27T12:58:05.295Z,0.10
2023-03-27T13:01:12.563Z,0.00
2023-03-27T13:04:19.770Z,0.08
2023-03-27T13:07:02.972Z,0.00
2023-03-27T13:10:10.340Z,0.00
2023-03-27T13:12:58.488Z,0.28
2023-03-27T13:16:02.698Z,0.03
2023-03-27T13:19:10.076Z,0.10
2023-03-27T13:22:15.094Z,0.00
2023-03-27T13:25:23.104Z,0.10
2023-03-27T13:28:31.642Z,0.00
2023-03-27T13:32:03.180Z,0.00
2023-03-27T13:35:08.682Z,0.00
2023-03-27T13:37:58.267Z,0.00
2023-03-27T13:40:41.251Z,0.00
2023-03-27T13:43:25.315Z,0.30
2023-03-27T13:46:08.026Z,0.00
2023-03-27T13:49:11.327Z,0.00
2023-03-27T13:52:29.755Z,0.00
2023-03-27T13:55:43.713Z,0.00
2023-03-27T13:59:14.467Z,0.00
2023-03-27T14:01:59.221Z,0.03
2023-03-27T14:04:53.253Z,0.00
2023-03-27T14:08:09.767Z,0.00
2023-03-27T14:11:31.348Z,0.00
2023-03-27T14:14:24.257Z,0.00
2023-03-27T14:17:43.938Z,0.10
2023-03-27T14:20:23.102Z,0.00
2023-03-27T14:23:01.948Z,0.00
2023-03-27T14:25:47.904Z,0.00
2023-03-27T14:28:33.630Z,0.00
2023-03-27T14:31:11.296Z,0.00
2023-03-27T14:34:05.428Z,0.00
2023-03-27T14:36:42.957Z,0.10
2023-03-27T14:39:26.235Z,0.00
2023-03-27T14:42:16.456Z,0.00
2023-03-27T14:45:08.837Z,0.10
2023-03-27T14:47:42.971Z,0.00
2023-03-27T14:50:20.526Z,0.00
2023-03-27T14:52:56.445Z,0.10
2023-03-27T14:55:52.925Z,0.00
2023-03-27T14:58:54.669Z,4.82
2023-03-27T15:01:32.001Z,4.70
2023-03-27T15:04:11.265Z,4.97
2023-03-27T15:06:46.028Z,3.58
2023-03-27T15:09:30.380Z,2.72
2023-03-27T15:12:24.586Z,2.35
2023-03-27T15:14:59.511Z,2.95
2023-03-27T15:17:38.785Z,2.47
2023-03-27T15:20:14.796Z,2.22
2023-03-27T15:22:52.152Z,4.15
2023-03-27T15:25:35.998Z,4.43
2023-03-27T15:28:15.893Z,4.20
2023-03-27T15:30:52.818Z,2.13
2023-03-27T15:33:34.158Z,13.57
2023-03-27T15:36:21.472Z,1.80
2023-03-27T15:38:55.235Z,4.35
2023-03-27T15:41:38.816Z,3.15
2023-03-27T15:44:19.084Z,2.85
2023-03-27T15:46:55.410Z,5.28
2023-03-27T15:49:32.983Z,2.05
2023-03-27T15:52:31.192Z,4.70
2023-03-27T15:55:04.570Z,2.85
2023-03-27T15:57:37.908Z,3.20
2023-03-27T16:00:15.320Z,4.13
2023-03-27T16:02:49.038Z,2.60
2023-03-27T16:05:23.315Z,3.53
2023-03-27T16:07:56.493Z,2.05
2023-03-27T16:10:32.961Z,4.30
2023-03-27T16:13:07.469Z,3.22
2023-03-27T16:15:42.032Z,2.78
2023-03-27T16:18:19.239Z,6.07
2023-03-27T16:20:53.467Z,4.65
2023-03-27T16:23:26.306Z,2.25
2023-03-27T16:26:00.624Z,2.20
2023-03-27T16:28:33.846Z,5.97
2023-03-27T16:31:14.313Z,6.25
2023-03-27T16:36:25.786Z,3.90
2023-03-27T16:38:58.560Z,5.65
2023-03-27T16:41:31.483Z,3.00
2023-03-27T16:44:04.356Z,3.65
2023-03-27T16:46:37.254Z,4.85
2023-03-27T16:49:12.699Z,2.22
2023-03-27T16:51:46.989Z,3.80
2023-03-27T16:54:19.817Z,4.25
2023-03-27T16:56:53.488Z,4.93
2023-03-27T16:59:26.559Z,2.78
2023-03-27T17:01:59.570Z,6.97
2023-03-27T17:04:32.712Z,3.33
2023-03-27T17:07:07.781Z,4.43
2023-03-27T17:09:41.029Z,2.33
2023-03-27T17:12:14.083Z,2.50
2023-03-27T17:14:46.953Z,2.92
2023-03-27T17:17:19.979Z,3.35
2023-03-27T17:19:52.735Z,2.30
2023-03-27T17:22:29.841Z,2.83
2023-03-27T17:25:05.584Z,3.60
2023-03-27T17:27:38.961Z,3.90
2023-03-27T17:30:12.558Z,3.53
2023-03-27T17:32:46.126Z,7.03
2023-03-27T17:35:19.121Z,1.88
2023-03-27T17:37:53.424Z,5.82
2023-03-27T17:40:26.667Z,4.47
2023-03-27T17:43:02.012Z,3.53
2023-03-27T17:45:35.111Z,7.13
2023-03-27T17:48:08.339Z,2.90
2023-03-27T17:50:41.530Z,5.07
2023-03-27T17:53:16.113Z,4.28
2023-03-27T17:55:51.578Z,4.35
2023-03-27T17:58:26.513Z,3.45
2023-03-27T18:00:59.432Z,6.60
2023-03-27T18:03:32.286Z,4.53
2023-03-27T18:06:05.575Z,2.85
2023-03-27T18:08:39.902Z,4.35
2023-03-27T18:11:15.014Z,3.88
2023-03-27T18:13:52.663Z,5.07
2023-03-27T18:16:25.639Z,5.68
2023-03-27T18:18:58.700Z,4.45
2023-03-27T18:21:31.479Z,2.65
2023-03-27T18:24:06.563Z,6.40
2023-03-27T18:26:39.562Z,6.90
2023-03-27T18:29:13.029Z,4.72
2023-03-27T18:31:45.935Z,3.72
2023-03-27T18:34:19.243Z,4.57
2023-03-27T18:36:52.739Z,5.43
2023-03-27T18:39:27.444Z,4.20
2023-03-27T18:42:02.214Z,4.85
2023-03-27T18:44:36.528Z,3.92
2023-03-27T18:47:09.646Z,4.80
2023-03-27T18:49:44.577Z,4.13
2023-03-27T18:52:17.612Z,2.42
2023-03-27T18:54:51.852Z,2.40
2023-03-27T18:57:25.115Z,3.25
2023-03-27T18:59:58.471Z,3.33
2023-03-27T19:02:32.194Z,2.25
2023-03-27T19:05:05.856Z,3.78
2023-03-27T19:07:44.614Z,3.75
2023-03-27T19:10:19.683Z,3.35
2023-03-27T19:13:10.993Z,3.08
2023-03-27T19:16:02.290Z,2.17
2023-03-27T19:19:06.176Z,2.88
2023-03-27T19:22:12.690Z,2.13
2023-03-27T19:25:16.277Z,1.60
2023-03-27T19:27:50.953Z,3.45
2023-03-27T19:30:24.296Z,3.17
2023-03-27T19:33:00.621Z,5.88
2023-03-27T19:35:34.085Z,2.10
2023-03-27T19:38:07.021Z,3.55
2023-03-27T19:40:39.946Z,2.05
2023-03-27T19:43:14.238Z,3.97
2023-03-27T19:46:04.429Z,5.88
2023-03-27T19:48:47.555Z,4.43
2023-03-27T19:51:43.939Z,3.72
2023-03-27T19:54:19.086Z,8.02
2023-03-27T19:56:52.241Z,7.15
2023-03-27T19:59:30.943Z,5.45
2023-03-27T20:02:05.152Z,4.25
2023-03-27T20:04:38.125Z,5.68
2023-03-27T20:07:11.278Z,5.05
2023-03-27T20:09:44.156Z,4.45
2023-03-27T20:12:19.619Z,3.25
2023-03-27T20:15:02.370Z,3.53
2023-03-27T20:17:41.317Z,3.35
2023-03-27T20:20:14.379Z,3.58
2023-03-27T20:22:57.179Z,2.80
2023-03-27T20:25:33.756Z,4.80
2023-03-27T20:28:07.741Z,3.47
2023-03-27T20:30:42.111Z,2.80
2023-03-27T20:33:15.016Z,4.18
2023-03-27T20:35:47.827Z,3.63
2023-03-27T20:38:20.879Z,2.88
2023-03-27T20:40:54.551Z,3.47
2023-03-27T20:43:34.915Z,2.42
2023-03-27T20:46:11.934Z,4.90
2023-03-27T20:48:53.545Z,4.95
2023-03-27T20:51:28.009Z,7.55
2023-03-27T20:54:05.912Z,6.07
2023-03-27T20:56:39.035Z,6.55
2023-03-27T20:59:13.497Z,7.60
2023-03-27T21:01:47.926Z,4.65
2023-03-27T21:04:21.522Z,5.88
2023-03-27T21:06:55.035Z,5.35
2023-03-27T21:09:28.723Z,7.30
2023-03-27T21:12:01.534Z,10.35
2023-03-27T21:14:34.478Z,8.82
2023-03-27T21:17:08.955Z,5.70
2023-03-27T21:19:41.934Z,8.65
2023-03-27T21:22:14.749Z,4.90
2023-03-27T21:24:47.691Z,6.63
2023-03-27T21:27:20.714Z,5.93
2023-03-27T21:29:53.557Z,9.63
2023-03-27T21:32:28.612Z,5.63
2023-03-27T21:35:01.631Z,8.02
2023-03-27T21:37:34.776Z,5.43
2023-03-27T21:40:09.251Z,6.57
2023-03-27T21:42:42.269Z,10.00
2023-03-27T21:45:15.464Z,5.35
2023-03-27T21:47:51.302Z,4.93
2023-03-27T21:50:24.634Z,3.63
2023-03-27T21:52:57.707Z,4.68
2023-03-27T21:55:30.686Z,7.28
2023-03-27T21:58:03.497Z,8.45
2023-03-27T22:00:36.264Z,5.57
2023-03-27T22:03:10.494Z,5.45
2023-03-27T22:05:43.986Z,8.90
2023-03-27T22:08:19.225Z,8.65
2023-03-27T22:10:52.250Z,3.75
2023-03-27T22:13:25.010Z,4.88
2023-03-27T22:15:58.465Z,2.75
2023-03-27T22:18:33.695Z,4.78
2023-03-27T22:21:18.069Z,3.33
2023-03-27T22:23:52.002Z,4.35
2023-03-27T22:26:27.214Z,4.60
2023-03-27T22:29:00.325Z,4.28
2023-03-27T22:31:33.241Z,3.10
2023-03-27T22:34:07.486Z,2.85
2023-03-27T22:36:40.489Z,2.42
2023-03-27T22:39:13.381Z,5.60
2023-03-27T22:41:46.262Z,4.32
2023-03-27T22:44:19.182Z,3.80
2023-03-27T22:46:53.148Z,4.82
2023-03-27T22:49:27.728Z,3.85
2023-03-27T22:52:00.719Z,3.72
2023-03-27T22:54:33.700Z,4.65
2023-03-27T22:57:06.552Z,3.30
2023-03-27T22:59:39.536Z,7.47
2023-03-27T23:02:12.375Z,6.07
2023-03-27T23:04:46.562Z,4.00
2023-03-27T23:07:19.558Z,3.28
2023-03-27T23:09:52.414Z,3.13
2023-03-27T23:12:25.435Z,3.78
2023-03-27T23:14:58.206Z,4.88
2023-03-27T23:17:31.043Z,3.30
2023-03-27T23:20:05.841Z,6.00
2023-03-27T23:22:38.963Z,5.47
2023-03-27T23:25:11.980Z,6.10
2023-03-27T23:27:45.276Z,7.80
2023-03-27T23:30:18.299Z,5.38
2023-03-27T23:32:51.212Z,4.13
2023-03-27T23:35:25.417Z,3.63
2023-03-27T23:37:58.228Z,8.35
2023-03-27T23:43:04.023Z,7.18
2023-03-27T23:45:37.045Z,6.00
2023-03-27T23:48:09.839Z,8.63
2023-03-27T23:50:44.685Z,6.78
2023-03-27T23:53:17.489Z,6.10
2023-03-27T23:55:50.644Z,4.60
2023-03-27T23:58:23.896Z,5.20
